sensor_id;sensor_type;location;lat;lon;timestamp;P1;durP1;ratioP1;P2;durP2;ratioP2
14754;SDS011;7469;50.906;6.952;2022-11-20T00:01:03;15.27;;;10.10;;
14754;SDS011;7469;50.906;6.952;2022-11-20T00:03:32;13.93;;;9.43;;
14754;SDS011;7469;50.906;6.952;2022-11-20T00:06:02;13.33;;;9.73;;
14754;SDS011;7469;50.906;6.952;2022-11-20T00:08:30;14.57;;;10.37;;
14754;SDS011;7469;50.906;6.952;2022-11-20T00:11:02;13.83;;;9.73;;
14754;SDS011;7469;50.906;6.952;2022-11-20T00:13:31;13.57;;;9.93;;
14754;SDS011;7469;50.906;6.952;2022-11-20T00:16:00;12.50;;;9.43;;
14754;SDS011;7469;50.906;6.952;2022-11-20T00:18:30;12.73;;;9.53;;
14754;SDS011;7469;50.906;6.952;2022-11-20T00:21:03;14.63;;;9.73;;
14754;SDS011;7469;50.906;6.952;2022-11-20T00:23:33;15.23;;;9.80;;
14754;SDS011;7469;50.906;6.952;2022-11-20T00:26:02;12.47;;;9.47;;
14754;SDS011;7469;50.906;6.952;2022-11-20T00:28:30;14.93;;;9.93;;
14754;SDS011;7469;50.906;6.952;2022-11-20T00:31:02;14.13;;;9.70;;
14754;SDS011;7469;50.906;6.952;2022-11-20T00:33:31;15.07;;;9.27;;
14754;SDS011;7469;50.906;6.952;2022-11-20T00:35:59;12.13;;;8.80;;
14754;SDS011;7469;50.906;6.952;2022-11-20T00:38:30;12.93;;;9.23;;
14754;SDS011;7469;50.906;6.952;2022-11-20T00:40:58;14.20;;;9.27;;
14754;SDS011;7469;50.906;6.952;2022-11-20T00:43:28;11.37;;;8.50;;
14754;SDS011;7469;50.906;6.952;2022-11-20T00:45:56;13.30;;;9.23;;
14754;SDS011;7469;50.906;6.952;2022-11-20T00:48:25;13.57;;;9.33;;
14754;SDS011;7469;50.906;6.952;2022-11-20T00:50:53;12.80;;;8.80;;
14754;SDS011;7469;50.906;6.952;2022-11-20T00:53:22;13.67;;;9.30;;
14754;SDS011;7469;50.906;6.952;2022-11-20T00:55:55;13.43;;;9.67;;
14754;SDS011;7469;50.906;6.952;2022-11-20T00:58:25;12.53;;;8.50;;
14754;SDS011;7469;50.906;6.952;2022-11-20T01:01:01;13.83;;;9.53;;
14754;SDS011;7469;50.906;6.952;2022-11-20T01:03:30;12.20;;;8.57;;
14754;SDS011;7469;50.906;6.952;2022-11-20T01:06:02;14.80;;;9.37;;
14754;SDS011;7469;50.906;6.952;2022-11-20T01:08:31;13.50;;;9.13;;
14754;SDS011;7469;50.906;6.952;2022-11-20T01:11:01;11.67;;;8.67;;
14754;SDS011;7469;50.906;6.952;2022-11-20T01:13:31;13.03;;;9.30;;
14754;SDS011;7469;50.906;6.952;2022-11-20T01:16:06;13.60;;;9.53;;
14754;SDS011;7469;50.906;6.952;2022-11-20T01:18:34;15.27;;;9.50;;
14754;SDS011;7469;50.906;6.952;2022-11-20T01:21:03;11.47;;;8.67;;
14754;SDS011;7469;50.906;6.952;2022-11-20T01:23:33;14.03;;;8.63;;
14754;SDS011;7469;50.906;6.952;2022-11-20T01:26:05;13.07;;;9.73;;
14754;SDS011;7469;50.906;6.952;2022-11-20T01:28:33;12.77;;;9.13;;
14754;SDS011;7469;50.906;6.952;2022-11-20T01:31:09;13.97;;;9.27;;
14754;SDS011;7469;50.906;6.952;2022-11-20T01:33:39;12.87;;;9.37;;
14754;SDS011;7469;50.906;6.952;2022-11-20T01:36:07;14.53;;;8.87;;
14754;SDS011;7469;50.906;6.952;2022-11-20T01:38:36;14.27;;;9.37;;
14754;SDS011;7469;50.906;6.952;2022-11-20T01:41:06;15.70;;;9.90;;
14754;SDS011;7469;50.906;6.952;2022-11-20T01:43:34;14.37;;;10.07;;
14754;SDS011;7469;50.906;6.952;2022-11-20T01:46:06;12.67;;;9.73;;
14754;SDS011;7469;50.906;6.952;2022-11-20T01:48:43;14.53;;;10.07;;
14754;SDS011;7469;50.906;6.952;2022-11-20T01:51:18;12.17;;;9.20;;
14754;SDS011;7469;50.906;6.952;2022-11-20T01:53:51;13.67;;;9.73;;
14754;SDS011;7469;50.906;6.952;2022-11-20T01:56:24;13.00;;;8.67;;
14754;SDS011;7469;50.906;6.952;2022-11-20T01:58:55;13.77;;;9.63;;
14754;SDS011;7469;50.906;6.952;2022-11-20T02:01:25;13.60;;;8.73;;
14754;SDS011;7469;50.906;6.952;2022-11-20T02:03:53;15.50;;;10.33;;
14754;SDS011;7469;50.906;6.952;2022-11-20T02:06:23;13.23;;;9.10;;
14754;SDS011;7469;50.906;6.952;2022-11-20T02:08:53;13.57;;;9.50;;
14754;SDS011;7469;50.906;6.952;2022-11-20T02:11:21;14.20;;;9.30;;
14754;SDS011;7469;50.906;6.952;2022-11-20T02:13:51;12.97;;;9.13;;
14754;SDS011;7469;50.906;6.952;2022-11-20T02:16:20;14.23;;;9.20;;
14754;SDS011;7469;50.906;6.952;2022-11-20T02:18:50;15.17;;;9.40;;
14754;SDS011;7469;50.906;6.952;2022-11-20T02:21:21;15.07;;;9.47;;
14754;SDS011;7469;50.906;6.952;2022-11-20T02:24:01;12.17;;;9.07;;
14754;SDS011;7469;50.906;6.952;2022-11-20T02:26:31;13.03;;;8.93;;
14754;SDS011;7469;50.906;6.952;2022-11-20T02:29:02;13.17;;;8.97;;
14754;SDS011;7469;50.906;6.952;2022-11-20T02:31:35;14.77;;;9.93;;
14754;SDS011;7469;50.906;6.952;2022-11-20T02:34:05;13.03;;;9.37;;
14754;SDS011;7469;50.906;6.952;2022-11-20T02:36:34;13.97;;;9.37;;
14754;SDS011;7469;50.906;6.952;2022-11-20T02:39:05;16.27;;;10.60;;
14754;SDS011;7469;50.906;6.952;2022-11-20T02:41:33;12.37;;;8.83;;
14754;SDS011;7469;50.906;6.952;2022-11-20T02:44:03;13.37;;;9.03;;
14754;SDS011;7469;50.906;6.952;2022-11-20T02:46:32;15.63;;;10.30;;
14754;SDS011;7469;50.906;6.952;2022-11-20T02:49:01;13.77;;;9.27;;
14754;SDS011;7469;50.906;6.952;2022-11-20T02:51:29;14.60;;;9.43;;
14754;SDS011;7469;50.906;6.952;2022-11-20T02:53:58;13.03;;;9.97;;
14754;SDS011;7469;50.906;6.952;2022-11-20T02:56:27;12.37;;;8.83;;
14754;SDS011;7469;50.906;6.952;2022-11-20T02:58:55;14.90;;;9.73;;
14754;SDS011;7469;50.906;6.952;2022-11-20T03:01:23;10.77;;;8.40;;
14754;SDS011;7469;50.906;6.952;2022-11-20T03:03:51;10.07;;;8.60;;
14754;SDS011;7469;50.906;6.952;2022-11-20T03:06:20;12.17;;;8.53;;
14754;SDS011;7469;50.906;6.952;2022-11-20T03:08:48;15.33;;;9.33;;
14754;SDS011;7469;50.906;6.952;2022-11-20T03:11:16;12.93;;;8.90;;
14754;SDS011;7469;50.906;6.952;2022-11-20T03:13:46;12.60;;;8.63;;
14754;SDS011;7469;50.906;6.952;2022-11-20T03:16:14;14.90;;;8.73;;
14754;SDS011;7469;50.906;6.952;2022-11-20T03:18:44;12.90;;;9.03;;
14754;SDS011;7469;50.906;6.952;2022-11-20T03:21:13;13.97;;;9.47;;
14754;SDS011;7469;50.906;6.952;2022-11-20T03:23:42;12.87;;;9.17;;
14754;SDS011;7469;50.906;6.952;2022-11-20T03:26:11;11.47;;;8.53;;
14754;SDS011;7469;50.906;6.952;2022-11-20T03:28:41;12.60;;;8.53;;
14754;SDS011;7469;50.906;6.952;2022-11-20T03:31:15;11.90;;;8.63;;
14754;SDS011;7469;50.906;6.952;2022-11-20T03:33:44;14.00;;;9.17;;
14754;SDS011;7469;50.906;6.952;2022-11-20T03:36:13;13.20;;;8.87;;
14754;SDS011;7469;50.906;6.952;2022-11-20T03:38:42;11.07;;;8.90;;
14754;SDS011;7469;50.906;6.952;2022-11-20T03:41:10;14.03;;;9.70;;
14754;SDS011;7469;50.906;6.952;2022-11-20T03:43:39;14.50;;;9.07;;
14754;SDS011;7469;50.906;6.952;2022-11-20T03:46:07;14.70;;;9.80;;
14754;SDS011;7469;50.906;6.952;2022-11-20T03:48:37;12.37;;;9.30;;
14754;SDS011;7469;50.906;6.952;2022-11-20T03:51:08;13.80;;;9.60;;
14754;SDS011;7469;50.906;6.952;2022-11-20T03:53:37;12.83;;;9.27;;
14754;SDS011;7469;50.906;6.952;2022-11-20T03:56:06;12.40;;;8.90;;
14754;SDS011;7469;50.906;6.952;2022-11-20T03:58:35;13.07;;;9.70;;
14754;SDS011;7469;50.906;6.952;2022-11-20T04:01:06;13.90;;;9.60;;
14754;SDS011;7469;50.906;6.952;2022-11-20T04:03:37;13.23;;;9.03;;
14754;SDS011;7469;50.906;6.952;2022-11-20T04:06:06;15.77;;;10.00;;
14754;SDS011;7469;50.906;6.952;2022-11-20T04:08:36;14.87;;;9.80;;
14754;SDS011;7469;50.906;6.952;2022-11-20T04:11:08;12.80;;;9.57;;
14754;SDS011;7469;50.906;6.952;2022-11-20T04:13:37;16.67;;;9.47;;
14754;SDS011;7469;50.906;6.952;2022-11-20T04:16:06;15.60;;;9.93;;
14754;SDS011;7469;50.906;6.952;2022-11-20T04:18:36;13.67;;;9.50;;
14754;SDS011;7469;50.906;6.952;2022-11-20T04:21:04;15.20;;;10.40;;
14754;SDS011;7469;50.906;6.952;2022-11-20T04:23:33;14.50;;;10.20;;
14754;SDS011;7469;50.906;6.952;2022-11-20T04:26:01;16.93;;;9.67;;
14754;SDS011;7469;50.906;6.952;2022-11-20T04:28:33;14.97;;;10.57;;
14754;SDS011;7469;50.906;6.952;2022-11-20T04:31:02;16.60;;;10.67;;
14754;SDS011;7469;50.906;6.952;2022-11-20T04:33:31;16.43;;;10.03;;
14754;SDS011;7469;50.906;6.952;2022-11-20T04:36:02;17.97;;;11.67;;
14754;SDS011;7469;50.906;6.952;2022-11-20T04:38:31;17.63;;;11.23;;
14754;SDS011;7469;50.906;6.952;2022-11-20T04:41:00;17.37;;;11.00;;
14754;SDS011;7469;50.906;6.952;2022-11-20T04:43:30;17.27;;;11.50;;
14754;SDS011;7469;50.906;6.952;2022-11-20T04:45:59;14.37;;;10.50;;
14754;SDS011;7469;50.906;6.952;2022-11-20T04:48:28;17.80;;;10.30;;
14754;SDS011;7469;50.906;6.952;2022-11-20T04:50:56;15.37;;;10.60;;
14754;SDS011;7469;50.906;6.952;2022-11-20T04:53:26;15.97;;;10.83;;
14754;SDS011;7469;50.906;6.952;2022-11-20T04:55:58;18.43;;;10.53;;
14754;SDS011;7469;50.906;6.952;2022-11-20T04:58:27;14.93;;;10.20;;
14754;SDS011;7469;50.906;6.952;2022-11-20T05:01:00;17.53;;;10.03;;
14754;SDS011;7469;50.906;6.952;2022-11-20T05:03:30;20.63;;;10.57;;
14754;SDS011;7469;50.906;6.952;2022-11-20T05:05:59;15.87;;;10.70;;
14754;SDS011;7469;50.906;6.952;2022-11-20T05:08:29;16.23;;;10.43;;
14754;SDS011;7469;50.906;6.952;2022-11-20T05:11:01;17.30;;;11.47;;
14754;SDS011;7469;50.906;6.952;2022-11-20T05:13:30;20.30;;;12.97;;
14754;SDS011;7469;50.906;6.952;2022-11-20T05:16:00;19.10;;;12.00;;
14754;SDS011;7469;50.906;6.952;2022-11-20T05:18:30;18.37;;;11.63;;
14754;SDS011;7469;50.906;6.952;2022-11-20T05:20:58;17.57;;;12.37;;
14754;SDS011;7469;50.906;6.952;2022-11-20T05:23:26;18.43;;;12.13;;
14754;SDS011;7469;50.906;6.952;2022-11-20T05:25:56;19.17;;;13.57;;
14754;SDS011;7469;50.906;6.952;2022-11-20T05:28:25;18.57;;;12.20;;
14754;SDS011;7469;50.906;6.952;2022-11-20T05:30:54;19.83;;;12.70;;
14754;SDS011;7469;50.906;6.952;2022-11-20T05:33:21;18.57;;;12.07;;
14754;SDS011;7469;50.906;6.952;2022-11-20T05:35:49;18.50;;;12.60;;
14754;SDS011;7469;50.906;6.952;2022-11-20T05:38:17;17.80;;;12.13;;
14754;SDS011;7469;50.906;6.952;2022-11-20T05:40:45;20.70;;;12.63;;
14754;SDS011;7469;50.906;6.952;2022-11-20T05:43:14;18.70;;;11.93;;
14754;SDS011;7469;50.906;6.952;2022-11-20T05:45:42;21.10;;;12.80;;
14754;SDS011;7469;50.906;6.952;2022-11-20T05:48:18;19.10;;;11.87;;
14754;SDS011;7469;50.906;6.952;2022-11-20T05:50:46;18.27;;;12.17;;
14754;SDS011;7469;50.906;6.952;2022-11-20T05:53:14;18.47;;;12.13;;
14754;SDS011;7469;50.906;6.952;2022-11-20T05:55:42;18.90;;;12.63;;
14754;SDS011;7469;50.906;6.952;2022-11-20T05:58:10;19.30;;;12.30;;
14754;SDS011;7469;50.906;6.952;2022-11-20T06:00:39;19.70;;;11.80;;
14754;SDS011;7469;50.906;6.952;2022-11-20T06:03:07;18.03;;;11.47;;
14754;SDS011;7469;50.906;6.952;2022-11-20T06:05:35;18.10;;;12.23;;
14754;SDS011;7469;50.906;6.952;2022-11-20T06:08:03;20.20;;;13.27;;
14754;SDS011;7469;50.906;6.952;2022-11-20T06:10:31;18.37;;;12.77;;
14754;SDS011;7469;50.906;6.952;2022-11-20T06:12:59;21.30;;;12.80;;
14754;SDS011;7469;50.906;6.952;2022-11-20T06:15:27;22.10;;;13.07;;
14754;SDS011;7469;50.906;6.952;2022-11-20T06:17:56;21.53;;;13.40;;
14754;SDS011;7469;50.906;6.952;2022-11-20T06:20:25;20.13;;;13.70;;
14754;SDS011;7469;50.906;6.952;2022-11-20T06:22:53;19.73;;;12.93;;
14754;SDS011;7469;50.906;6.952;2022-11-20T06:25:21;22.80;;;13.20;;
14754;SDS011;7469;50.906;6.952;2022-11-20T06:27:48;21.33;;;12.77;;
14754;SDS011;7469;50.906;6.952;2022-11-20T06:30:16;21.70;;;13.03;;
14754;SDS011;7469;50.906;6.952;2022-11-20T06:32:44;21.70;;;13.00;;
14754;SDS011;7469;50.906;6.952;2022-11-20T06:35:14;21.20;;;13.57;;
14754;SDS011;7469;50.906;6.952;2022-11-20T06:37:42;20.70;;;12.80;;
14754;SDS011;7469;50.906;6.952;2022-11-20T06:40:10;24.70;;;13.60;;
14754;SDS011;7469;50.906;6.952;2022-11-20T06:42:39;16.40;;;11.83;;
14754;SDS011;7469;50.906;6.952;2022-11-20T06:45:07;16.77;;;11.17;;
14754;SDS011;7469;50.906;6.952;2022-11-20T06:47:36;17.97;;;10.33;;
14754;SDS011;7469;50.906;6.952;2022-11-20T06:50:04;19.17;;;10.73;;
14754;SDS011;7469;50.906;6.952;2022-11-20T06:52:34;14.90;;;10.43;;
14754;SDS011;7469;50.906;6.952;2022-11-20T06:55:08;16.30;;;11.10;;
14754;SDS011;7469;50.906;6.952;2022-11-20T06:57:36;15.27;;;10.40;;
14754;SDS011;7469;50.906;6.952;2022-11-20T07:00:05;15.50;;;10.47;;
14754;SDS011;7469;50.906;6.952;2022-11-20T07:02:33;17.77;;;10.67;;
14754;SDS011;7469;50.906;6.952;2022-11-20T07:05:01;14.93;;;10.50;;
14754;SDS011;7469;50.906;6.952;2022-11-20T07:07:29;17.13;;;11.10;;
14754;SDS011;7469;50.906;6.952;2022-11-20T07:09:59;15.27;;;10.27;;
14754;SDS011;7469;50.906;6.952;2022-11-20T07:12:27;15.23;;;10.57;;
14754;SDS011;7469;50.906;6.952;2022-11-20T07:14:55;14.77;;;10.27;;
14754;SDS011;7469;50.906;6.952;2022-11-20T07:17:23;14.63;;;10.40;;
14754;SDS011;7469;50.906;6.952;2022-11-20T07:19:51;15.77;;;10.83;;
14754;SDS011;7469;50.906;6.952;2022-11-20T07:22:19;17.03;;;10.00;;
14754;SDS011;7469;50.906;6.952;2022-11-20T07:24:48;17.13;;;10.93;;
14754;SDS011;7469;50.906;6.952;2022-11-20T07:27:17;14.77;;;10.57;;
14754;SDS011;7469;50.906;6.952;2022-11-20T07:29:45;16.40;;;11.20;;
14754;SDS011;7469;50.906;6.952;2022-11-20T07:32:13;15.47;;;10.13;;
14754;SDS011;7469;50.906;6.952;2022-11-20T07:34:41;15.77;;;10.67;;
14754;SDS011;7469;50.906;6.952;2022-11-20T07:37:09;15.37;;;10.73;;
14754;SDS011;7469;50.906;6.952;2022-11-20T07:39:37;16.87;;;11.37;;
14754;SDS011;7469;50.906;6.952;2022-11-20T07:42:05;15.53;;;10.87;;
14754;SDS011;7469;50.906;6.952;2022-11-20T07:44:35;14.33;;;10.77;;
14754;SDS011;7469;50.906;6.952;2022-11-20T07:47:03;16.43;;;10.87;;
14754;SDS011;7469;50.906;6.952;2022-11-20T07:49:31;15.90;;;11.27;;
14754;SDS011;7469;50.906;6.952;2022-11-20T07:51:59;16.73;;;11.00;;
14754;SDS011;7469;50.906;6.952;2022-11-20T07:54:30;16.30;;;11.20;;
14754;SDS011;7469;50.906;6.952;2022-11-20T07:56:58;15.60;;;10.23;;
14754;SDS011;7469;50.906;6.952;2022-11-20T07:59:26;17.77;;;11.63;;
14754;SDS011;7469;50.906;6.952;2022-11-20T08:01:55;20.07;;;11.80;;
14754;SDS011;7469;50.906;6.952;2022-11-20T08:04:23;17.93;;;10.57;;
14754;SDS011;7469;50.906;6.952;2022-11-20T08:06:51;14.57;;;10.60;;
14754;SDS011;7469;50.906;6.952;2022-11-20T08:09:20;16.97;;;11.27;;
14754;SDS011;7469;50.906;6.952;2022-11-20T08:11:48;15.53;;;10.90;;
14754;SDS011;7469;50.906;6.952;2022-11-20T08:14:33;16.67;;;11.23;;
14754;SDS011;7469;50.906;6.952;2022-11-20T08:17:02;18.13;;;11.37;;
14754;SDS011;7469;50.906;6.952;2022-11-20T08:19:30;18.57;;;11.77;;
14754;SDS011;7469;50.906;6.952;2022-11-20T08:21:59;17.53;;;11.00;;
14754;SDS011;7469;50.906;6.952;2022-11-20T08:24:26;16.87;;;11.53;;
14754;SDS011;7469;50.906;6.952;2022-11-20T08:26:56;14.60;;;10.47;;
14754;SDS011;7469;50.906;6.952;2022-11-20T08:29:25;18.37;;;11.83;;
14754;SDS011;7469;50.906;6.952;2022-11-20T08:31:53;18.47;;;11.67;;
14754;SDS011;7469;50.906;6.952;2022-11-20T08:34:23;17.33;;;11.43;;
14754;SDS011;7469;50.906;6.952;2022-11-20T08:36:51;19.23;;;12.40;;
14754;SDS011;7469;50.906;6.952;2022-11-20T08:39:18;18.23;;;12.10;;
14754;SDS011;7469;50.906;6.952;2022-11-20T08:41:47;18.77;;;12.40;;
14754;SDS011;7469;50.906;6.952;2022-11-20T08:44:15;17.00;;;12.50;;
14754;SDS011;7469;50.906;6.952;2022-11-20T08:46:43;22.63;;;14.07;;
14754;SDS011;7469;50.906;6.952;2022-11-20T08:49:12;20.23;;;13.67;;
14754;SDS011;7469;50.906;6.952;2022-11-20T08:51:42;18.47;;;12.97;;
14754;SDS011;7469;50.906;6.952;2022-11-20T08:54:11;20.33;;;12.27;;
14754;SDS011;7469;50.906;6.952;2022-11-20T08:56:39;23.30;;;13.80;;
14754;SDS011;7469;50.906;6.952;2022-11-20T08:59:07;18.17;;;12.53;;
14754;SDS011;7469;50.906;6.952;2022-11-20T09:01:55;17.97;;;12.50;;
14754;SDS011;7469;50.906;6.952;2022-11-20T09:04:23;19.47;;;12.57;;
14754;SDS011;7469;50.906;6.952;2022-11-20T09:06:52;20.90;;;12.77;;
14754;SDS011;7469;50.906;6.952;2022-11-20T09:09:20;21.10;;;13.07;;
14754;SDS011;7469;50.906;6.952;2022-11-20T09:11:49;18.90;;;12.90;;
14754;SDS011;7469;50.906;6.952;2022-11-20T09:14:17;18.77;;;13.43;;
14754;SDS011;7469;50.906;6.952;2022-11-20T09:16:45;20.43;;;12.83;;
14754;SDS011;7469;50.906;6.952;2022-11-20T09:19:13;18.17;;;12.53;;
14754;SDS011;7469;50.906;6.952;2022-11-20T09:22:02;19.50;;;11.90;;
14754;SDS011;7469;50.906;6.952;2022-11-20T09:24:30;19.80;;;13.47;;
14754;SDS011;7469;50.906;6.952;2022-11-20T09:27:00;17.93;;;11.97;;
14754;SDS011;7469;50.906;6.952;2022-11-20T09:29:29;15.80;;;11.77;;
14754;SDS011;7469;50.906;6.952;2022-11-20T09:31:57;18.53;;;12.53;;
14754;SDS011;7469;50.906;6.952;2022-11-20T09:34:25;17.60;;;12.53;;
14754;SDS011;7469;50.906;6.952;2022-11-20T09:36:53;17.90;;;12.33;;
14754;SDS011;7469;50.906;6.952;2022-11-20T09:39:22;15.27;;;11.23;;
14754;SDS011;7469;50.906;6.952;2022-11-20T09:44:47;18.40;;;12.27;;
14754;SDS011;7469;50.906;6.952;2022-11-20T09:47:23;19.23;;;12.73;;
14754;SDS011;7469;50.906;6.952;2022-11-20T09:50:03;19.70;;;12.70;;
14754;SDS011;7469;50.906;6.952;2022-11-20T09:52:49;20.30;;;13.27;;
14754;SDS011;7469;50.906;6.952;2022-11-20T09:55:28;18.93;;;12.10;;
14754;SDS011;7469;50.906;6.952;2022-11-20T09:57:58;19.03;;;12.60;;
14754;SDS011;7469;50.906;6.952;2022-11-20T10:00:27;17.93;;;12.13;;
14754;SDS011;7469;50.906;6.952;2022-11-20T10:02:58;20.53;;;13.33;;
14754;SDS011;7469;50.906;6.952;2022-11-20T10:05:30;19.90;;;12.83;;
14754;SDS011;7469;50.906;6.952;2022-11-20T10:08:07;19.30;;;13.77;;
14754;SDS011;7469;50.906;6.952;2022-11-20T10:10:43;20.93;;;13.63;;
14754;SDS011;7469;50.906;6.952;2022-11-20T10:13:26;20.00;;;13.67;;
14754;SDS011;7469;50.906;6.952;2022-11-20T10:16:09;23.80;;;13.37;;
14754;SDS011;7469;50.906;6.952;2022-11-20T10:18:53;22.87;;;13.60;;
14754;SDS011;7469;50.906;6.952;2022-11-20T10:21:34;19.87;;;13.40;;
14754;SDS011;7469;50.906;6.952;2022-11-20T10:24:20;22.40;;;14.47;;
14754;SDS011;7469;50.906;6.952;2022-11-20T10:27:06;22.00;;;14.20;;
14754;SDS011;7469;50.906;6.952;2022-11-20T10:29:43;19.57;;;12.27;;
14754;SDS011;7469;50.906;6.952;2022-11-20T10:32:15;22.23;;;14.73;;
14754;SDS011;7469;50.906;6.952;2022-11-20T10:34:46;24.13;;;13.97;;
14754;SDS011;7469;50.906;6.952;2022-11-20T10:37:18;20.17;;;14.10;;
14754;SDS011;7469;50.906;6.952;2022-11-20T10:39:50;19.10;;;12.93;;
14754;SDS011;7469;50.906;6.952;2022-11-20T10:42:26;23.00;;;13.10;;
14754;SDS011;7469;50.906;6.952;2022-11-20T10:45:02;21.83;;;14.43;;
14754;SDS011;7469;50.906;6.952;2022-11-20T10:47:40;22.20;;;13.77;;
14754;SDS011;7469;50.906;6.952;2022-11-20T10:50:09;19.13;;;13.77;;
14754;SDS011;7469;50.906;6.952;2022-11-20T10:52:49;22.27;;;13.93;;
14754;SDS011;7469;50.906;6.952;2022-11-20T10:55:25;18.87;;;13.43;;
14754;SDS011;7469;50.906;6.952;2022-11-20T10:58:03;22.53;;;14.37;;
14754;SDS011;7469;50.906;6.952;2022-11-20T11:00:38;21.40;;;13.20;;
14754;SDS011;7469;50.906;6.952;2022-11-20T11:03:13;21.13;;;14.43;;
14754;SDS011;7469;50.906;6.952;2022-11-20T11:05:48;24.10;;;14.80;;
14754;SDS011;7469;50.906;6.952;2022-11-20T11:08:21;21.30;;;14.27;;
14754;SDS011;7469;50.906;6.952;2022-11-20T11:10:51;20.93;;;13.60;;
14754;SDS011;7469;50.906;6.952;2022-11-20T11:13:23;17.97;;;12.53;;
14754;SDS011;7469;50.906;6.952;2022-11-20T11:15:52;21.53;;;13.67;;
14754;SDS011;7469;50.906;6.952;2022-11-20T11:18:24;18.67;;;13.10;;
14754;SDS011;7469;50.906;6.952;2022-11-20T11:20:54;23.70;;;14.33;;
14754;SDS011;7469;50.906;6.952;2022-11-20T11:23:28;19.63;;;12.93;;
14754;SDS011;7469;50.906;6.952;2022-11-20T11:26:00;22.43;;;14.27;;
14754;SDS011;7469;50.906;6.952;2022-11-20T11:28:30;23.67;;;13.93;;
14754;SDS011;7469;50.906;6.952;2022-11-20T11:30:59;19.93;;;13.17;;
14754;SDS011;7469;50.906;6.952;2022-11-20T11:33:28;19.00;;;13.30;;
14754;SDS011;7469;50.906;6.952;2022-11-20T11:35:56;23.87;;;14.30;;
14754;SDS011;7469;50.906;6.952;2022-11-20T11:38:29;19.27;;;13.37;;
14754;SDS011;7469;50.906;6.952;2022-11-20T11:40:58;21.23;;;13.67;;
14754;SDS011;7469;50.906;6.952;2022-11-20T11:43:28;23.27;;;14.10;;
14754;SDS011;7469;50.906;6.952;2022-11-20T11:46:24;21.97;;;12.87;;
14754;SDS011;7469;50.906;6.952;2022-11-20T11:48:57;23.63;;;14.00;;
14754;SDS011;7469;50.906;6.952;2022-11-20T11:51:26;21.03;;;13.53;;
14754;SDS011;7469;50.906;6.952;2022-11-20T11:54:00;18.67;;;13.17;;
14754;SDS011;7469;50.906;6.952;2022-11-20T11:56:30;22.33;;;13.07;;
14754;SDS011;7469;50.906;6.952;2022-11-20T11:59:04;21.27;;;13.57;;
14754;SDS011;7469;50.906;6.952;2022-11-20T12:01:41;21.07;;;13.87;;
14754;SDS011;7469;50.906;6.952;2022-11-20T12:04:17;18.93;;;12.77;;
14754;SDS011;7469;50.906;6.952;2022-11-20T12:06:53;20.37;;;13.23;;
14754;SDS011;7469;50.906;6.952;2022-11-20T12:09:48;22.23;;;13.50;;
14754;SDS011;7469;50.906;6.952;2022-11-20T12:12:20;23.27;;;14.30;;
14754;SDS011;7469;50.906;6.952;2022-11-20T12:14:53;21.37;;;13.13;;
14754;SDS011;7469;50.906;6.952;2022-11-20T12:17:23;23.13;;;12.83;;
14754;SDS011;7469;50.906;6.952;2022-11-20T12:19:51;20.50;;;13.17;;
14754;SDS011;7469;50.906;6.952;2022-11-20T12:22:23;21.57;;;13.87;;
14754;SDS011;7469;50.906;6.952;2022-11-20T12:24:58;21.00;;;12.60;;
14754;SDS011;7469;50.906;6.952;2022-11-20T12:27:42;20.87;;;13.23;;
14754;SDS011;7469;50.906;6.952;2022-11-20T12:30:28;21.47;;;13.60;;
14754;SDS011;7469;50.906;6.952;2022-11-20T12:33:03;20.80;;;12.23;;
14754;SDS011;7469;50.906;6.952;2022-11-20T12:35:52;20.53;;;12.77;;
14754;SDS011;7469;50.906;6.952;2022-11-20T12:38:35;19.13;;;12.97;;
14754;SDS011;7469;50.906;6.952;2022-11-20T12:41:26;22.13;;;13.50;;
14754;SDS011;7469;50.906;6.952;2022-11-20T12:44:30;21.77;;;13.13;;
14754;SDS011;7469;50.906;6.952;2022-11-20T12:47:42;21.73;;;13.07;;
14754;SDS011;7469;50.906;6.952;2022-11-20T12:50:22;21.37;;;12.60;;
14754;SDS011;7469;50.906;6.952;2022-11-20T12:52:58;21.37;;;12.97;;
14754;SDS011;7469;50.906;6.952;2022-11-20T12:55:42;20.80;;;13.10;;
14754;SDS011;7469;50.906;6.952;2022-11-20T12:58:18;21.23;;;14.00;;
14754;SDS011;7469;50.906;6.952;2022-11-20T13:00:52;22.77;;;12.83;;
14754;SDS011;7469;50.906;6.952;2022-11-20T13:03:36;22.47;;;13.70;;
14754;SDS011;7469;50.906;6.952;2022-11-20T13:06:11;20.10;;;13.03;;
14754;SDS011;7469;50.906;6.952;2022-11-20T13:08:43;19.93;;;12.77;;
14754;SDS011;7469;50.906;6.952;2022-11-20T13:11:18;18.93;;;12.63;;
14754;SDS011;7469;50.906;6.952;2022-11-20T13:14:07;19.53;;;12.90;;
14754;SDS011;7469;50.906;6.952;2022-11-20T13:16:45;22.87;;;12.87;;
14754;SDS011;7469;50.906;6.952;2022-11-20T13:19:20;22.27;;;13.90;;
14754;SDS011;7469;50.906;6.952;2022-11-20T13:21:49;20.50;;;13.33;;
14754;SDS011;7469;50.906;6.952;2022-11-20T13:24:21;20.40;;;12.43;;
14754;SDS011;7469;50.906;6.952;2022-11-20T13:27:16;20.77;;;13.47;;
14754;SDS011;7469;50.906;6.952;2022-11-20T13:29:47;22.20;;;13.70;;
14754;SDS011;7469;50.906;6.952;2022-11-20T13:32:27;21.30;;;12.50;;
14754;SDS011;7469;50.906;6.952;2022-11-20T13:35:00;20.17;;;13.23;;
14754;SDS011;7469;50.906;6.952;2022-11-20T13:37:30;20.47;;;12.77;;
14754;SDS011;7469;50.906;6.952;2022-11-20T13:40:11;18.43;;;11.70;;
14754;SDS011;7469;50.906;6.952;2022-11-20T13:42:43;20.87;;;13.23;;
14754;SDS011;7469;50.906;6.952;2022-11-20T13:45:21;20.13;;;13.40;;
14754;SDS011;7469;50.906;6.952;2022-11-20T13:47:50;20.10;;;12.80;;
14754;SDS011;7469;50.906;6.952;2022-11-20T13:50:21;19.90;;;12.53;;
14754;SDS011;7469;50.906;6.952;2022-11-20T13:53:01;22.27;;;13.37;;
14754;SDS011;7469;50.906;6.952;2022-11-20T13:55:36;17.67;;;12.23;;
14754;SDS011;7469;50.906;6.952;2022-11-20T13:58:20;18.27;;;11.90;;
14754;SDS011;7469;50.906;6.952;2022-11-20T14:01:00;18.63;;;11.57;;
14754;SDS011;7469;50.906;6.952;2022-11-20T14:03:35;18.07;;;11.80;;
14754;SDS011;7469;50.906;6.952;2022-11-20T14:06:26;17.93;;;11.80;;
14754;SDS011;7469;50.906;6.952;2022-11-20T14:08:55;21.57;;;13.43;;
14754;SDS011;7469;50.906;6.952;2022-11-20T14:11:24;20.40;;;13.60;;
14754;SDS011;7469;50.906;6.952;2022-11-20T14:13:54;18.57;;;13.00;;
14754;SDS011;7469;50.906;6.952;2022-11-20T14:16:25;23.30;;;13.27;;
14754;SDS011;7469;50.906;6.952;2022-11-20T14:18:55;19.73;;;12.67;;
14754;SDS011;7469;50.906;6.952;2022-11-20T14:21:27;21.27;;;12.70;;
14754;SDS011;7469;50.906;6.952;2022-11-20T14:24:05;19.67;;;12.13;;
14754;SDS011;7469;50.906;6.952;2022-11-20T14:26:34;21.20;;;13.17;;
14754;SDS011;7469;50.906;6.952;2022-11-20T14:29:02;19.43;;;12.77;;
14754;SDS011;7469;50.906;6.952;2022-11-20T14:31:31;18.00;;;12.73;;
14754;SDS011;7469;50.906;6.952;2022-11-20T14:33:59;24.20;;;13.27;;
14754;SDS011;7469;50.906;6.952;2022-11-20T14:36:31;18.97;;;11.83;;
14754;SDS011;7469;50.906;6.952;2022-11-20T14:38:59;20.07;;;13.60;;
14754;SDS011;7469;50.906;6.952;2022-11-20T14:41:27;19.30;;;12.63;;
14754;SDS011;7469;50.906;6.952;2022-11-20T14:43:58;17.90;;;11.37;;
14754;SDS011;7469;50.906;6.952;2022-11-20T14:46:28;18.40;;;12.70;;
14754;SDS011;7469;50.906;6.952;2022-11-20T14:49:00;19.03;;;12.03;;
14754;SDS011;7469;50.906;6.952;2022-11-20T14:51:32;18.77;;;11.73;;
14754;SDS011;7469;50.906;6.952;2022-11-20T14:54:11;19.60;;;12.57;;
14754;SDS011;7469;50.906;6.952;2022-11-20T14:56:41;18.87;;;12.57;;
14754;SDS011;7469;50.906;6.952;2022-11-20T14:59:22;18.07;;;11.27;;
14754;SDS011;7469;50.906;6.952;2022-11-20T15:01:54;20.67;;;11.50;;
14754;SDS011;7469;50.906;6.952;2022-11-20T15:04:24;22.77;;;12.53;;
14754;SDS011;7469;50.906;6.952;2022-11-20T15:06:55;17.53;;;11.30;;